Time;durP1;ratioP1;P1;durP2;ratioP2;P2;SDS_P1;SDS_P2;PMS_P1;PMS_P2;Temp;Humidity;BMP_temperature;BMP_pressure;BME280_temperature;BME280_humidity;BME280_pressure;Samples;Min_cycle;Max_cycle;Signal;HPM_P1;HPM_P2
2023/05/04 00:01:20;;;;;;;0.60;0.60;;;;;;;6.86;70.95;98272.41;5061171;28;20075;-67
2023/05/04 00:03:49;;;;;;;0.75;0.75;;;;;;;6.93;70.64;98273.47;5047144;28;20041;-67
2023/05/04 00:06:16;;;;;;;0.93;0.93;;;;;;;6.93;70.56;98277.94;5052543;28;20128;-67
2023/05/04 00:08:44;;;;;;;0.80;0.80;;;;;;;6.91;70.88;98275.44;5045531;28;20095;-67
2023/05/04 00:11:11;;;;;;;0.80;0.80;;;;;;;6.97;70.58;98266.00;5056575;28;20153;-68
2023/05/04 00:13:39;;;;;;;1.00;1.00;;;;;;;7.17;69.55;98278.09;5043384;28;20056;-67
2023/05/04 00:16:07;;;;;;;0.85;0.85;;;;;;;7.17;69.66;98282.56;5041377;28;20594;-68
2023/05/04 00:18:37;;;;;;;0.15;0.15;;;;;;;6.84;70.54;98279.72;5051097;28;20424;-69
2023/05/04 00:21:06;;;;;;;0.65;0.65;;;;;;;6.95;70.22;98273.31;5058123;28;20569;-68
2023/05/04 00:23:34;;;;;;;0.85;0.85;;;;;;;7.08;69.53;98271.06;5055314;28;20045;-68
2023/05/04 00:26:02;;;;;;;0.90;0.90;;;;;;;6.81;70.27;98269.41;5061025;28;20052;-68
2023/05/04 00:28:29;;;;;;;0.80;0.80;;;;;;;6.83;70.16;98258.63;5057305;28;20454;-68
2023/05/04 00:30:57;;;;;;;0.60;0.60;;;;;;;6.68;70.72;98266.31;5057827;28;20095;-68
2023/05/04 00:33:24;;;;;;;0.70;0.70;;;;;;;6.63;71.01;98265.94;5047213;28;20052;-68
2023/05/04 00:35:52;;;;;;;0.73;0.73;;;;;;;6.74;70.55;98257.75;5042715;28;20037;-68
2023/05/04 00:38:20;;;;;;;0.50;0.50;;;;;;;6.87;70.05;98262.63;5059430;28;20106;-68
2023/05/04 00:40:49;;;;;;;1.00;1.00;;;;;;;6.79;70.10;98255.44;5055020;28;20098;-68
2023/05/04 00:43:16;;;;;;;0.68;0.68;;;;;;;6.74;69.82;98251.59;5055271;28;20070;-67
2023/05/04 00:45:44;;;;;;;0.93;0.93;;;;;;;6.50;70.85;98249.56;5053167;28;20064;-68
2023/05/04 00:48:11;;;;;;;0.80;0.80;;;;;;;6.54;70.54;98245.66;5061922;28;20040;-68
2023/05/04 00:50:39;;;;;;;0.70;0.70;;;;;;;6.52;70.51;98245.78;5057012;28;20049;-68
2023/05/04 00:53:08;;;;;;;0.60;0.60;;;;;;;6.10;72.13;98248.22;5044037;28;20087;-68
2023/05/04 00:55:39;;;;;;;0.80;0.80;;;;;;;6.24;71.39;98246.84;5051878;28;20121;-67
2023/05/04 00:58:07;;;;;;;1.58;1.58;;;;;;;6.10;72.06;98236.78;5055982;28;20496;-67
2023/05/04 01:00:35;;;;;;;0.82;0.82;;;;;;;6.20;71.39;98242.84;5056004;28;20045;-68
2023/05/04 01:03:03;;;;;;;0.90;0.90;;;;;;;6.28;70.81;98239.44;5052140;28;20126;-68
2023/05/04 01:05:35;;;;;;;1.00;1.00;;;;;;;6.11;71.01;98241.09;5054708;28;20041;-68
2023/05/04 01:08:07;;;;;;;0.70;0.70;;;;;;;6.13;71.35;98237.31;5054800;28;20071;-68
2023/05/04 01:10:42;;;;;;;0.82;0.82;;;;;;;6.22;70.85;98235.59;5042837;28;20040;-68
2023/05/04 01:13:12;;;;;;;0.80;0.80;;;;;;;6.00;71.67;98239.50;5057829;28;20041;-68
2023/05/04 01:15:42;;;;;;;0.30;0.30;;;;;;;5.92;72.11;98231.44;5049280;28;20464;-68
2023/05/04 01:18:09;;;;;;;0.98;0.98;;;;;;;5.81;72.68;98232.47;5046337;28;20048;-68
2023/05/04 01:20:37;;;;;;;0.60;0.60;;;;;;;5.77;72.57;98231.13;5048100;28;20544;-67
2023/05/04 01:23:06;;;;;;;0.75;0.75;;;;;;;6.02;71.73;98234.88;5047603;28;20048;-68
2023/05/04 01:25:37;;;;;;;1.00;1.00;;;;;;;5.99;71.26;98232.53;5042602;28;20083;-68
2023/05/04 01:28:08;;;;;;;0.82;0.82;;;;;;;5.76;72.65;98234.75;5047931;28;20053;-67
2023/05/04 01:30:37;;;;;;;0.80;0.80;;;;;;;5.91;71.81;98240.41;5057111;28;20057;-68
2023/05/04 01:33:06;;;;;;;0.75;0.75;;;;;;;5.67;72.81;98227.69;5042153;28;20049;-68
2023/05/04 01:35:36;;;;;;;0.93;0.93;;;;;;;5.72;72.75;98237.81;5053761;28;20055;-67
2023/05/04 01:38:05;;;;;;;0.85;0.85;;;;;;;5.61;73.02;98236.19;5054304;28;20040;-68
2023/05/04 01:40:32;;;;;;;0.90;0.90;;;;;;;5.51;73.37;98244.19;5054549;28;20049;-67
2023/05/04 01:43:00;;;;;;;0.93;0.93;;;;;;;5.60;73.23;98239.88;5060445;28;20105;-67
2023/05/04 01:45:28;;;;;;;0.80;0.80;;;;;;;5.59;73.00;98242.66;5065524;28;20222;-67
2023/05/04 01:47:55;;;;;;;0.93;0.93;;;;;;;5.75;72.28;98242.81;5058804;28;20037;-68
2023/05/04 01:50:23;;;;;;;0.85;0.85;;;;;;;5.29;74.31;98238.47;5046961;28;20504;-67
2023/05/04 01:52:50;;;;;;;0.95;0.95;;;;;;;5.37;73.37;98242.06;5056697;28;20570;-67
2023/05/04 01:55:19;;;;;;;1.00;1.00;;;;;;;5.40;73.28;98235.59;5055535;28;20121;-67
2023/05/04 01:57:47;;;;;;;0.93;0.93;;;;;;;5.40;72.89;98239.09;5061495;28;20532;-67
2023/05/04 02:00:15;;;;;;;0.70;0.70;;;;;;;5.35;73.23;98240.53;5057683;28;20048;-67
2023/05/04 02:02:42;;;;;;;1.13;1.13;;;;;;;5.32;73.22;98236.34;5061766;28;20088;-67
2023/05/04 02:05:14;;;;;;;0.95;0.95;;;;;;;5.27;73.42;98229.84;5060650;28;20094;-67
2023/05/04 02:07:42;;;;;;;0.93;0.93;;;;;;;5.23;73.60;98234.56;5064762;28;20085;-67
2023/05/04 02:10:10;;;;;;;0.77;0.77;;;;;;;5.11;73.73;98233.09;5056622;28;20056;-67
2023/05/04 02:12:40;;;;;;;0.77;0.77;;;;;;;5.08;73.69;98228.09;5050943;28;20041;-67
2023/05/04 02:15:08;;;;;;;0.98;0.98;;;;;;;5.11;73.99;98233.09;5057824;28;20036;-67
2023/05/04 02:17:36;;;;;;;0.88;0.88;;;;;;;4.99;74.10;98231.59;5057514;28;20071;-67
2023/05/04 02:20:04;;;;;;;0.82;0.82;;;;;;;4.92;74.10;98227.84;5064296;28;20527;-68
2023/05/04 02:22:32;;;;;;;0.95;0.95;;;;;;;4.97;74.33;98225.63;5057280;28;20052;-67
2023/05/04 02:25:00;;;;;;;0.80;0.80;;;;;;;5.06;73.85;98225.59;5061980;28;20053;-68
2023/05/04 02:27:27;;;;;;;1.38;1.38;;;;;;;5.11;73.44;98227.78;5054616;28;20045;-68
2023/05/04 02:29:57;;;;;;;0.40;0.40;;;;;;;4.93;74.13;98229.53;5055469;28;20400;-70
2023/05/04 02:32:25;;;;;;;0.80;0.80;;;;;;;4.89;74.27;98223.69;5055814;28;20044;-68
2023/05/04 02:34:53;;;;;;;1.30;1.30;;;;;;;4.88;74.26;98219.38;5049500;28;20049;-67
2023/05/04 02:37:21;;;;;;;0.90;0.88;;;;;;;5.03;74.14;98227.69;5059731;28;20052;-68
2023/05/04 02:39:48;;;;;;;0.93;0.93;;;;;;;4.74;74.66;98227.78;5055185;28;20096;-68
2023/05/04 02:42:16;;;;;;;0.80;0.80;;;;;;;4.72;74.53;98222.63;5061038;28;20059;-67
2023/05/04 02:44:44;;;;;;;0.55;0.55;;;;;;;4.71;74.51;98228.88;5054742;28;20045;-68
2023/05/04 02:47:13;;;;;;;0.90;0.90;;;;;;;4.70;74.79;98223.72;5059858;28;20044;-67
2023/05/04 02:49:40;;;;;;;0.70;0.70;;;;;;;4.76;74.59;98229.31;5059241;28;20513;-68
2023/05/04 02:52:08;;;;;;;0.75;0.75;;;;;;;4.66;74.56;98225.84;5052097;28;20040;-67
2023/05/04 02:54:37;;;;;;;0.98;0.98;;;;;;;4.60;75.05;98231.69;5047833;28;20094;-67
2023/05/04 02:57:05;;;;;;;0.80;0.80;;;;;;;4.72;74.77;98225.25;5049231;28;20040;-68
2023/05/04 02:59:33;;;;;;;1.13;1.13;;;;;;;4.76;74.48;98221.38;5054557;28;20056;-68
2023/05/04 03:02:01;;;;;;;0.77;0.77;;;;;;;4.86;74.16;98220.50;5057044;28;20048;-68
2023/05/04 03:04:30;;;;;;;0.60;0.60;;;;;;;4.68;74.27;98223.88;5053596;28;20421;-68
2023/05/04 03:06:57;;;;;;;0.80;0.80;;;;;;;4.66;74.29;98227.66;5051330;28;20043;-68
2023/05/04 03:09:25;;;;;;;1.27;1.27;;;;;;;4.67;74.74;98231.97;5065043;28;20040;-68
2023/05/04 03:11:52;;;;;;;0.73;0.73;;;;;;;4.62;74.59;98227.09;5058282;28;20041;-68
2023/05/04 03:14:20;;;;;;;1.45;0.90;;;;;;;4.61;74.40;98229.88;5040465;28;20041;-67
2023/05/04 03:16:47;;;;;;;0.73;0.73;;;;;;;4.60;74.50;98225.56;5041536;28;20444;-69
2023/05/04 03:19:17;;;;;;;0.70;0.70;;;;;;;4.43;75.10;98225.31;5060066;28;20040;-68
2023/05/04 03:21:47;;;;;;;0.85;0.85;;;;;;;4.39;75.45;98223.91;5053279;28;20044;-67
2023/05/04 03:24:17;;;;;;;0.80;0.80;;;;;;;4.35;75.58;98221.72;5045788;28;20047;-68
2023/05/04 03:26:46;;;;;;;0.68;0.68;;;;;;;4.32;75.86;98228.09;5057637;28;20040;-68
2023/05/04 03:29:13;;;;;;;0.47;0.47;;;;;;;4.34;75.90;98230.59;5040215;28;20518;-68
2023/05/04 03:31:41;;;;;;;0.80;0.80;;;;;;;4.42;75.27;98226.28;5051989;28;20099;-69
2023/05/04 03:34:13;;;;;;;0.32;0.32;;;;;;;4.34;75.84;98220.03;5048784;28;20404;-68
2023/05/04 03:36:41;;;;;;;0.80;0.80;;;;;;;4.30;75.98;98223.91;5051108;28;20427;-69
2023/05/04 03:39:10;;;;;;;0.85;0.85;;;;;;;4.35;75.89;98221.72;5038521;28;20075;-68
2023/05/04 03:41:37;;;;;;;0.93;0.93;;;;;;;4.53;75.15;98221.81;5040699;28;20056;-69
2023/05/04 03:44:05;;;;;;;0.70;0.70;;;;;;;4.45;75.46;98225.19;5037219;28;20044;-68
2023/05/04 03:46:34;;;;;;;1.20;1.20;;;;;;;4.43;75.28;98219.19;5044444;28;20049;-68
2023/05/04 03:49:02;;;;;;;0.70;0.70;;;;;;;4.39;74.65;98221.28;5049971;28;20037;-68
2023/05/04 03:51:30;;;;;;;0.75;0.75;;;;;;;4.38;75.03;98218.75;5044441;28;20045;-68
2023/05/04 03:53:57;;;;;;;1.08;1.08;;;;;;;4.31;75.43;98217.66;5043976;28;20053;-67
2023/05/04 03:56:26;;;;;;;0.88;0.88;;;;;;;4.27;75.27;98221.56;5044807;28;20117;-68
2023/05/04 03:58:54;;;;;;;0.77;0.77;;;;;;;4.18;75.47;98222.38;5041930;28;20045;-68
2023/05/04 04:01:26;;;;;;;0.93;0.93;;;;;;;4.06;75.81;98221.69;5050479;28;20041;-67
2023/05/04 04:03:53;;;;;;;1.13;1.13;;;;;;;3.99;76.82;98213.50;5043845;28;20095;-67
2023/05/04 04:06:21;;;;;;;0.68;0.68;;;;;;;3.97;76.17;98223.34;5039226;28;20049;-68
2023/05/04 04:08:49;;;;;;;0.98;0.98;;;;;;;3.95;76.35;98216.53;5038959;28;20033;-70
2023/05/04 04:11:16;;;;;;;0.77;0.77;;;;;;;4.08;75.94;98227.66;5043765;28;20048;-70
2023/05/04 04:13:45;;;;;;;0.70;0.70;;;;;;;4.11;75.68;98221.28;5044801;28;20500;-68
2023/05/04 04:16:13;;;;;;;1.08;1.08;;;;;;;4.13;75.35;98225.47;5042928;28;20041;-68
2023/05/04 04:18:40;;;;;;;0.80;0.80;;;;;;;4.17;75.20;98221.56;5045467;28;20045;-68
2023/05/04 04:21:09;;;;;;;0.50;0.50;;;;;;;4.03;76.28;98225.47;5045103;28;20521;-68
2023/05/04 04:23:36;;;;;;;1.13;1.13;;;;;;;4.21;75.48;98227.41;5041955;28;20045;-68
2023/05/04 04:26:05;;;;;;;1.00;1.00;;;;;;;4.11;75.25;98237.97;5044749;28;20566;-69
2023/05/04 04:28:32;;;;;;;0.88;0.88;;;;;;;3.90;76.23;98232.81;5048153;28;20049;-68
2023/05/04 04:31:02;;;;;;;0.70;0.70;;;;;;;3.68;76.75;98228.59;5044048;28;20589;-69
2023/05/04 04:33:29;;;;;;;0.93;0.93;;;;;;;3.67;77.36;98226.94;5040205;28;20129;-69
2023/05/04 04:35:57;;;;;;;0.88;0.88;;;;;;;3.85;76.38;98231.53;5046551;28;20046;-69
2023/05/04 04:38:25;;;;;;;1.02;1.02;;;;;;;3.81;76.74;98230.16;5041706;28;20049;-68
2023/05/04 04:40:52;;;;;;;0.90;0.90;;;;;;;3.93;76.62;98229.06;5038223;28;20036;-69
2023/05/04 04:43:20;;;;;;;0.90;0.90;;;;;;;4.01;76.45;98237.97;5044514;28;20045;-68
2023/05/04 04:45:48;;;;;;;0.93;0.93;;;;;;;4.12;76.29;98244.91;5037702;28;20077;-69
2023/05/04 04:48:20;;;;;;;0.93;0.93;;;;;;;4.16;76.15;98234.91;5041261;28;20033;-69
2023/05/04 04:50:47;;;;;;;0.93;0.93;;;;;;;4.24;76.21;98238.53;5047765;28;20394;-68
2023/05/04 04:53:15;;;;;;;1.58;1.58;;;;;;;4.19;76.52;98242.56;5043635;28;20049;-67
2023/05/04 04:55:43;;;;;;;0.40;0.40;;;;;;;4.29;76.37;98246.03;5043180;28;20412;-68
2023/05/04 04:58:10;;;;;;;0.65;0.65;;;;;;;4.43;75.85;98235.06;5041626;28;20079;-68
2023/05/04 05:00:38;;;;;;;0.98;0.98;;;;;;;4.38;75.85;98234.63;5045136;28;20103;-67
2023/05/04 05:03:05;;;;;;;0.98;0.98;;;;;;;4.48;75.71;98227.53;5041364;28;20139;-68
2023/05/04 05:05:34;;;;;;;0.70;0.70;;;;;;;4.52;75.54;98234.19;5042315;28;20531;-68
2023/05/04 05:08:02;;;;;;;0.90;0.90;;;;;;;4.67;75.07;98239.91;5034301;28;20037;-68
2023/05/04 05:10:29;;;;;;;0.90;0.90;;;;;;;4.65;75.38;98242.69;5053473;28;20049;-68
2023/05/04 05:12:57;;;;;;;0.98;0.90;;;;;;;4.65;75.65;98228.63;5044308;28;20041;-68
2023/05/04 05:15:25;;;;;;;1.13;1.13;;;;;;;4.82;74.79;98232.34;5043379;28;20049;-69
2023/05/04 05:17:52;;;;;;;0.90;0.90;;;;;;;4.88;74.88;98229.16;5037609;28;20489;-68
2023/05/04 05:20:20;;;;;;;0.95;0.95;;;;;;;4.90;75.10;98227.16;5049804;28;20059;-68
2023/05/04 05:22:50;;;;;;;0.77;0.77;;;;;;;4.88;75.08;98224.66;5053924;28;20077;-68
2023/05/04 05:25:18;;;;;;;1.13;1.13;;;;;;;4.96;75.00;98226.59;5045308;28;20504;-68
2023/05/04 05:27:45;;;;;;;1.42;1.13;;;;;;;5.07;74.41;98226.44;5055177;28;20222;-68
2023/05/04 05:30:13;;;;;;;0.88;0.88;;;;;;;5.20;74.29;98229.56;5054305;28;20040;-69
2023/05/04 05:32:41;;;;;;;0.98;0.98;;;;;;;5.19;74.61;98225.28;5052063;28;20036;-68
2023/05/04 05:35:09;;;;;;;0.93;0.93;;;;;;;5.26;74.39;98220.22;5045566;28;20069;-68
2023/05/04 05:37:37;;;;;;;0.75;0.75;;;;;;;5.33;74.71;98216.84;5050963;28;20505;-68
2023/05/04 05:40:07;;;;;;;1.00;1.00;;;;;;;5.51;74.02;98215.06;5058253;28;20040;-68
2023/05/04 05:42:35;;;;;;;1.10;1.10;;;;;;;5.61;74.12;98222.97;5049262;28;20061;-67
2023/05/04 05:45:03;;;;;;;0.60;0.60;;;;;;;5.67;73.97;98218.91;5053394;28;20099;-67
2023/05/04 05:47:31;;;;;;;1.02;1.02;;;;;;;5.84;73.48;98218.94;5050147;28;20041;-67
2023/05/04 05:49:58;;;;;;;1.00;1.00;;;;;;;6.06;73.06;98209.75;5049125;28;20115;-67
2023/05/04 05:52:26;;;;;;;0.80;0.80;;;;;;;6.17;72.39;98208.69;5052021;28;20056;-68
2023/05/04 05:54:53;;;;;;;1.05;1.05;;;;;;;6.33;72.19;98208.84;5054404;28;20115;-67
2023/05/04 05:57:22;;;;;;;1.00;1.00;;;;;;;6.50;71.62;98208.00;5060453;28;20095;-68
2023/05/04 05:59:50;;;;;;;0.93;0.93;;;;;;;6.63;71.41;98208.44;5052165;28;20497;-70
2023/05/04 06:02:17;;;;;;;0.75;0.75;;;;;;;6.80;71.30;98209.38;5050913;28;20049;-68
2023/05/04 06:04:45;;;;;;;0.93;0.93;;;;;;;6.93;71.31;98203.66;5051858;28;20046;-68
2023/05/04 06:07:13;;;;;;;0.98;0.98;;;;;;;6.94;70.80;98190.22;5046976;28;20044;-68
2023/05/04 06:09:40;;;;;;;1.02;1.02;;;;;;;7.06;70.29;98195.28;5058244;28;20046;-68
2023/05/04 06:12:12;;;;;;;0.90;0.90;;;;;;;7.15;70.01;98199.63;5061441;28;20053;-68
2023/05/04 06:14:41;;;;;;;1.67;0.68;;;;;;;7.22;69.73;98192.69;5059875;28;20053;-68
2023/05/04 06:17:08;;;;;;;1.00;1.00;;;;;;;7.34;69.76;98178.97;5057216;28;20504;-67
2023/05/04 06:19:37;;;;;;;0.88;0.88;;;;;;;7.49;69.64;98186.31;5045731;28;20053;-67
2023/05/04 06:22:05;;;;;;;0.65;0.65;;;;;;;7.60;69.13;98186.84;5051048;28;20514;-69
2023/05/04 06:24:32;;;;;;;0.50;0.40;;;;;;;7.73;68.63;98183.75;5057000;28;20463;-69
2023/05/04 06:27:00;;;;;;;0.85;0.85;;;;;;;7.86;68.19;98181.47;5051030;28;20496;-67
2023/05/04 06:29:28;;;;;;;0.82;0.82;;;;;;;7.98;68.05;98185.47;5065723;28;20052;-68
2023/05/04 06:31:57;;;;;;;0.82;0.82;;;;;;;8.11;67.99;98185.81;5062003;28;20412;-68
2023/05/04 06:34:24;;;;;;;1.08;1.08;;;;;;;8.29;67.48;98177.69;5060477;28;20044;-68
2023/05/04 06:36:52;;;;;;;0.95;0.77;;;;;;;8.39;67.15;98180.22;5051702;28;20516;-68
2023/05/04 06:39:19;;;;;;;0.80;0.80;;;;;;;8.51;66.95;98181.56;5058407;28;20507;-68
2023/05/04 06:41:47;;;;;;;0.80;0.80;;;;;;;8.64;66.75;98173.03;5048532;28;20389;-68
2023/05/04 06:44:17;;;;;;;1.65;0.82;;;;;;;8.79;66.34;98174.03;5057433;28;20056;-68
2023/05/04 06:46:45;;;;;;;0.88;0.88;;;;;;;8.93;66.31;98165.34;5065616;28;20052;-69
2023/05/04 06:49:14;;;;;;;0.70;0.70;;;;;;;9.04;65.49;98172.13;5056032;28;20133;-68
2023/05/04 06:51:41;;;;;;;1.00;0.85;;;;;;;9.16;65.11;98173.44;5063710;28;20274;-67
2023/05/04 06:54:09;;;;;;;0.88;0.88;;;;;;;9.38;64.89;98163.88;5052557;28;20099;-68
2023/05/04 06:56:38;;;;;;;0.70;0.70;;;;;;;9.62;64.76;98171.75;5048003;28;20389;-68
2023/05/04 06:59:07;;;;;;;0.90;0.90;;;;;;;9.82;64.15;98170.31;5055959;28;20037;-68
2023/05/04 07:01:34;;;;;;;1.27;1.17;;;;;;;9.98;62.87;98165.88;5050980;28;20054;-68
2023/05/04 07:04:02;;;;;;;1.00;1.00;;;;;;;10.13;62.04;98167.63;5050186;28;20041;-70
2023/05/04 07:06:31;;;;;;;1.45;1.45;;;;;;;10.28;61.03;98170.34;5056449;28;20053;-68
2023/05/04 07:08:58;;;;;;;1.35;0.82;;;;;;;10.36;60.98;98169.50;5059324;28;20063;-69
2023/05/04 07:11:27;;;;;;;0.50;0.43;;;;;;;10.51;60.77;98173.00;5055087;28;20463;-69
2023/05/04 07:13:55;;;;;;;0.73;0.73;;;;;;;10.69;60.00;98172.72;5069822;28;20149;-69
2023/05/04 07:16:22;;;;;;;0.75;0.75;;;;;;;10.84;59.01;98165.53;5049492;28;20098;-70
2023/05/04 07:18:50;;;;;;;0.70;0.70;;;;;;;11.07;58.93;98171.66;5045667;28;20045;-68
2023/05/04 07:21:17;;;;;;;0.95;0.90;;;;;;;11.20;59.17;98166.50;5065149;28;20084;-68
2023/05/04 07:23:49;;;;;;;0.30;0.30;;;;;;;11.34;58.07;98162.97;5044348;28;20471;-69
2023/05/04 07:26:17;;;;;;;0.70;0.70;;;;;;;11.60;57.09;98159.84;5055811;28;20389;-69
2023/05/04 07:28:44;;;;;;;0.70;0.70;;;;;;;11.94;55.73;98161.88;5048746;28;20041;-68
2023/05/04 07:31:13;;;;;;;0.63;0.63;;;;;;;12.29;53.97;98157.53;5065848;28;20424;-68
2023/05/04 07:33:41;;;;;;;0.73;0.73;;;;;;;12.58;53.28;98153.03;5048349;28;20400;-68
2023/05/04 07:36:08;;;;;;;0.70;0.70;;;;;;;12.73;52.57;98145.75;5040691;28;20555;-68
2023/05/04 07:38:36;;;;;;;0.90;0.90;;;;;;;12.88;52.44;98144.59;5053469;28;20091;-68
2023/05/04 07:41:06;;;;;;;0.75;0.75;;;;;;;13.03;51.77;98147.19;5058312;28;20052;-68
2023/05/04 07:43:33;;;;;;;0.75;0.75;;;;;;;13.16;50.29;98139.28;5050842;28;20407;-70
2023/05/04 07:46:02;;;;;;;0.50;0.50;;;;;;;13.33;49.14;98136.25;5047304;28;20115;-68
2023/05/04 07:48:29;;;;;;;0.60;0.60;;;;;;;13.53;48.34;98135.31;5056479;28;20047;-70
2023/05/04 07:50:57;;;;;;;0.98;0.95;;;;;;;13.64;47.62;98133.09;5056775;28;20029;-68
2023/05/04 07:53:25;;;;;;;0.68;0.68;;;;;;;13.63;47.60;98136.81;5059850;28;20101;-68
2023/05/04 07:55:56;;;;;;;0.73;0.70;;;;;;;13.69;47.26;98136.00;5052096;28;20449;-68
2023/05/04 07:58:25;;;;;;;0.52;0.52;;;;;;;13.70;47.50;98133.13;5050174;28;20044;-68
2023/05/04 08:00:52;;;;;;;0.82;0.82;;;;;;;13.75;47.43;98124.47;5054776;28;20037;-68
2023/05/04 08:03:20;;;;;;;0.70;0.70;;;;;;;13.89;46.95;98128.84;5052302;28;20092;-68
2023/05/04 08:05:48;;;;;;;0.88;0.57;;;;;;;13.92;46.78;98123.88;5048711;28;20052;-69
2023/05/04 08:08:15;;;;;;;0.88;0.88;;;;;;;14.15;46.66;98120.84;5054516;28;20041;-69
2023/05/04 08:10:43;;;;;;;0.60;0.60;;;;;;;14.31;46.75;98123.16;5060295;28;20087;-68
2023/05/04 08:13:10;;;;;;;0.70;0.70;;;;;;;14.43;45.74;98122.56;5056465;28;20094;-68
2023/05/04 08:15:40;;;;;;;0.70;0.70;;;;;;;14.64;45.08;98114.28;5063892;28;20041;-68
2023/05/04 08:18:07;;;;;;;0.45;0.45;;;;;;;14.72;45.67;98114.09;5055118;28;20057;-68
2023/05/04 08:20:35;;;;;;;0.60;0.60;;;;;;;14.87;44.92;98111.16;5053020;28;20044;-68
2023/05/04 08:23:03;;;;;;;0.57;0.57;;;;;;;14.85;44.34;98103.31;5051339;28;20043;-68
2023/05/04 08:25:31;;;;;;;0.60;0.60;;;;;;;14.88;44.15;98104.75;5048955;28;20091;-68
2023/05/04 08:27:58;;;;;;;0.70;0.70;;;;;;;14.88;44.36;98102.91;5053131;28;20045;-67
2023/05/04 08:30:26;;;;;;;0.80;0.80;;;;;;;15.02;44.75;98104.53;5054027;28;20084;-68
2023/05/04 08:32:55;;;;;;;0.65;0.65;;;;;;;15.31;43.40;98100.53;5058099;28;20033;-68
2023/05/04 08:35:24;;;;;;;0.32;0.32;;;;;;;15.41;43.16;98110.84;5052532;28;20592;-68
2023/05/04 08:37:52;;;;;;;0.20;0.20;;;;;;;15.42;42.83;98102.56;5053980;28;20455;-68
2023/05/04 08:40:20;;;;;;;0.65;0.65;;;;;;;15.30;42.97;98104.25;5055849;28;20045;-67
2023/05/04 08:42:49;;;;;;;1.17;1.17;;;;;;;15.47;43.28;98096.50;5050809;28;20040;-68
2023/05/04 08:45:17;;;;;;;0.55;0.55;;;;;;;15.61;42.25;98091.94;5056133;28;20045;-68
2023/05/04 08:47:45;;;;;;;0.82;0.82;;;;;;;15.64;42.14;98100.41;5052109;28;20041;-68
2023/05/04 08:50:14;;;;;;;0.55;0.55;;;;;;;15.81;41.35;98097.22;5056425;28;20040;-68
2023/05/04 08:52:45;;;;;;;0.68;0.68;;;;;;;16.14;40.52;98103.25;5058131;28;20045;-67
2023/05/04 08:55:13;;;;;;;0.45;0.45;;;;;;;16.24;39.45;98103.59;5049791;28;20492;-68
2023/05/04 08:57:43;;;;;;;0.60;0.60;;;;;;;16.22;39.29;98102.16;5052042;28;20340;-68
2023/05/04 09:00:12;;;;;;;0.68;0.68;;;;;;;16.21;39.05;98095.94;5058963;28;20049;-67
2023/05/04 09:02:40;;;;;;;0.60;0.60;;;;;;;16.26;39.25;98098.81;5054141;28;20131;-68
2023/05/04 09:05:10;;;;;;;0.68;0.57;;;;;;;16.39;39.57;98105.97;5054853;28;20055;-68
2023/05/04 09:07:39;;;;;;;0.50;0.50;;;;;;;16.56;39.23;98095.47;5043185;28;20264;-68
2023/05/04 09:10:07;;;;;;;0.52;0.52;;;;;;;16.59;39.14;98103.13;5060051;28;20037;-68
2023/05/04 09:12:36;;;;;;;0.50;0.50;;;;;;;16.74;39.33;98090.16;5058207;28;20049;-68
2023/05/04 09:15:15;;;;;;;0.52;0.52;;;;;;;16.78;39.68;98086.81;5059874;28;20145;-68
2023/05/04 09:17:43;;;;;;;0.60;0.60;;;;;;;17.19;38.40;98088.88;5058844;28;20546;-68
2023/05/04 09:20:24;;;;;;;0.47;0.47;;;;;;;17.28;37.75;98085.84;5056003;28;20051;-68
2023/05/04 09:23:06;;;;;;;0.55;0.55;;;;;;;17.40;38.02;98089.47;5057391;28;20037;-68
2023/05/04 09:25:34;;;;;;;0.98;0.98;;;;;;;17.40;37.74;98094.84;5056488;28;20050;-68
2023/05/04 09:28:02;;;;;;;0.77;0.77;;;;;;;17.46;37.63;98091.25;5049399;28;20041;-67
2023/05/04 09:30:29;;;;;;;0.68;0.50;;;;;;;17.61;37.36;98087.13;5063382;28;20094;-68
2023/05/04 09:32:57;;;;;;;0.43;0.43;;;;;;;17.48;37.06;98084.56;5054057;28;20048;-68
2023/05/04 09:35:28;;;;;;;0.60;0.60;;;;;;;17.52;37.27;98088.47;5048087;28;20388;-68
2023/05/04 09:38:01;;;;;;;0.52;0.50;;;;;;;17.48;37.10;98078.34;5050518;28;20059;-68
2023/05/04 09:40:37;;;;;;;0.50;0.50;;;;;;;17.94;35.52;98080.47;5064587;28;20045;-68
2023/05/04 09:43:05;;;;;;;0.60;0.60;;;;;;;18.11;35.39;98080.63;5058222;28;20614;-68
2023/05/04 09:45:40;;;;;;;0.47;0.47;;;;;;;18.19;35.27;98081.13;5048588;28;20044;-68
2023/05/04 09:48:17;;;;;;;0.40;0.40;;;;;;;18.14;34.34;98072.91;5051255;28;20620;-69
2023/05/04 09:50:49;;;;;;;1.15;0.75;;;;;;;18.08;35.75;98070.28;5053864;28;20041;-68
2023/05/04 09:53:20;;;;;;;0.57;0.50;;;;;;;18.03;35.14;98070.16;5058433;28;20102;-68
2023/05/04 09:55:57;;;;;;;0.63;0.63;;;;;;;18.28;34.27;98070.81;5060256;28;20626;-69
2023/05/04 09:58:29;;;;;;;0.47;0.47;;;;;;;18.50;33.69;98061.09;5061929;28;20048;-68
2023/05/04 10:00:57;;;;;;;0.50;0.50;;;;;;;17.76;34.85;98059.72;5060604;28;20048;-68
2023/05/04 10:03:26;;;;;;;0.47;0.47;;;;;;;17.94;34.07;98054.28;5057242;28;20090;-68
2023/05/04 10:05:54;;;;;;;0.50;0.50;;;;;;;18.16;35.43;98054.59;5061512;28;20052;-68
2023/05/04 10:08:22;;;;;;;0.50;0.50;;;;;;;18.56;34.75;98049.34;5051885;28;20056;-68
2023/05/04 10:10:52;;;;;;;0.50;0.50;;;;;;;18.82;33.53;98045.38;5057558;28;20065;-69
2023/05/04 10:13:20;;;;;;;0.52;0.52;;;;;;;18.70;33.84;98039.97;5067969;28;20086;-69
2023/05/04 10:15:59;;;;;;;0.70;0.70;;;;;;;18.81;34.14;98042.91;5063130;28;20044;-69
2023/05/04 10:18:38;;;;;;;1.08;1.08;;;;;;;19.15;34.02;98041.22;5057195;28;20052;-69
2023/05/04 10:21:29;;;;;;;0.70;0.70;;;;;;;19.19;33.28;98031.56;5053403;28;20044;-70
2023/05/04 10:24:19;;;;;;;0.60;0.60;;;;;;;19.34;33.88;98035.41;5053424;28;20121;-69
2023/05/04 10:26:58;;;;;;;0.50;0.50;;;;;;;19.47;32.74;98028.91;5042595;28;20065;-69
2023/05/04 10:29:28;;;;;;;0.57;0.57;;;;;;;19.86;32.78;98029.94;5044222;28;20509;-69
2023/05/04 10:31:56;;;;;;;0.55;0.55;;;;;;;20.08;31.46;98016.50;5057878;28;20492;-69
2023/05/04 10:34:25;;;;;;;0.30;0.30;;;;;;;20.34;30.52;98010.44;5059765;28;20098;-69
2023/05/04 10:36:53;;;;;;;0.45;0.45;;;;;;;20.19;30.60;98017.50;5059417;28;20048;-68
2023/05/04 10:39:21;;;;;;;0.45;0.45;;;;;;;20.24;30.43;98023.03;5066920;28;20052;-69
2023/05/04 10:42:02;;;;;;;1.40;0.60;;;;;;;20.09;30.90;98018.16;5057636;28;20049;-69
2023/05/04 10:44:31;;;;;;;0.40;0.40;;;;;;;20.07;30.33;98009.44;5052307;28;20092;-69
2023/05/04 10:47:00;;;;;;;0.50;0.50;;;;;;;20.13;30.08;98012.00;5065447;28;20048;-69
2023/05/04 10:49:29;;;;;;;0.60;0.60;;;;;;;20.12;30.13;98004.94;5061895;28;20045;-69
2023/05/04 10:52:05;;;;;;;0.38;0.38;;;;;;;19.86;30.01;98002.00;5052698;28;20048;-69
2023/05/04 10:54:34;;;;;;;0.55;0.55;;;;;;;20.21;30.60;97993.69;5058823;28;20052;-69
2023/05/04 10:57:05;;;;;;;0.82;0.68;;;;;;;20.53;30.18;97983.91;5068794;28;20048;-69
2023/05/04 10:59:34;;;;;;;0.40;0.40;;;;;;;20.63;29.77;97975.94;5056169;28;20044;-70
2023/05/04 11:02:04;;;;;;;0.40;0.40;;;;;;;20.99;29.42;97970.97;5056153;28;20053;-70
2023/05/04 11:04:32;;;;;;;0.40;0.40;;;;;;;20.53;29.78;97981.22;5062489;28;20174;-69
2023/05/04 11:07:01;;;;;;;0.40;0.40;;;;;;;18.99;31.75;97980.56;5054905;28;20507;-70
2023/05/04 11:09:36;;;;;;;0.40;0.40;;;;;;;19.66;31.80;97972.69;5060409;28;20044;-68
2023/05/04 11:12:06;;;;;;;0.20;0.10;;;;;;;20.55;30.27;97960.09;5056226;28;20480;-68
2023/05/04 11:14:36;;;;;;;0.38;0.38;;;;;;;21.39;28.25;97957.09;5062710;28;20105;-67
2023/05/04 11:17:07;;;;;;;0.30;0.30;;;;;;;21.58;27.70;97958.41;5055984;28;20045;-69
2023/05/04 11:19:53;;;;;;;0.40;0.40;;;;;;;21.64;27.64;97951.09;5051905;28;20064;-70
2023/05/04 11:22:21;;;;;;;0.20;0.10;;;;;;;21.70;26.77;97955.53;5063527;28;20545;-70
2023/05/04 11:24:48;;;;;;;0.45;0.45;;;;;;;21.71;26.17;97949.00;5056562;28;20070;-69
2023/05/04 11:27:27;;;;;;;0.40;0.40;;;;;;;21.65;25.90;97955.47;5064795;28;20063;-67
2023/05/04 11:29:56;;;;;;;0.45;0.45;;;;;;;21.66;25.69;97951.69;5055874;28;20033;-68
2023/05/04 11:32:33;;;;;;;0.50;0.50;;;;;;;21.55;26.59;97946.13;5059762;28;20542;-68
2023/05/04 11:35:02;;;;;;;0.50;0.50;;;;;;;21.44;25.94;97941.69;5066579;28;20098;-69
2023/05/04 11:37:31;;;;;;;0.52;0.52;;;;;;;21.48;26.13;97945.53;5060128;28;20048;-69
2023/05/04 11:39:59;;;;;;;0.35;0.35;;;;;;;;;;5056682;28;20048;-69
2023/05/04 11:42:28;;;;;;;0.47;0.47;;;;;;;21.49;26.36;97944.44;5061574;28;20488;-70
2023/05/04 11:44:55;;;;;;;0.40;0.40;;;;;;;21.28;26.02;97936.34;5060957;28;20128;-69
2023/05/04 11:47:25;;;;;;;0.30;0.30;;;;;;;21.37;26.64;97938.34;5055811;28;20048;-70